createdAt,value
2022-12-05T00:09:43.786Z,25.390625
2022-12-05T00:19:43.718Z,25.8056640625
2022-12-05T00:29:43.651Z,26.0009765625
2022-12-05T00:39:43.592Z,26.904296875
2022-12-05T00:49:43.505Z,27.7099609375
2022-12-05T00:59:43.466Z,26.3916015625
2022-12-05T01:09:43.354Z,26.1962890625
2022-12-05T01:19:43.390Z,26.0986328125
2022-12-05T01:29:43.237Z,28.1005859375
2022-12-05T01:39:43.168Z,25.48828125
2022-12-05T01:49:43.089Z,24.1943359375
2022-12-05T01:59:42.994Z,23.59619140625
2022-12-05T02:09:42.951Z,22.998046875
2022-12-05T02:19:42.879Z,22.802734375
2022-12-05T02:29:42.768Z,22.59521484375
2022-12-05T02:39:42.722Z,22.0947265625
2022-12-05T02:49:42.643Z,21.8017578125
2022-12-05T02:59:42.572Z,21.10595703125
2022-12-05T03:09:42.536Z,20.20263671875
2022-12-05T03:19:42.474Z,19.7021484375
2022-12-05T03:29:42.354Z,19.10400390625
2022-12-05T03:39:42.282Z,19.29931640625
2022-12-05T03:49:42.231Z,19.10400390625
2022-12-05T03:59:42.176Z,18.896484375
2022-12-05T04:09:42.111Z,18.701171875
2022-12-05T04:19:42.012Z,18.505859375
2022-12-05T04:29:42.045Z,18.20068359375
2022-12-05T04:39:42.008Z,18.10302734375
2022-12-05T04:49:41.808Z,17.7978515625
2022-12-05T04:59:41.699Z,17.7001953125
2022-12-05T05:09:41.634Z,17.6025390625
2022-12-05T05:19:41.608Z,17.29736328125
2022-12-05T05:29:41.528Z,17.5048828125
2022-12-05T05:39:41.535Z,17.39501953125
2022-12-05T05:49:41.367Z,17.5048828125
2022-12-05T05:59:41.310Z,17.19970703125
2022-12-05T06:09:41.230Z,17.00439453125
2022-12-05T06:19:41.141Z,16.69921875
2022-12-05T06:29:41.086Z,16.39404296875
2022-12-05T06:39:41.011Z,16.39404296875
2022-12-05T06:49:40.940Z,16.29638671875
2022-12-05T06:59:40.885Z,16.29638671875
2022-12-05T07:09:40.840Z,16.19873046875
2022-12-05T07:19:40.740Z,16.00341796875
2022-12-05T07:29:40.683Z,16.00341796875
2022-12-05T07:39:40.590Z,15.7958984375
2022-12-05T07:49:40.517Z,15.6982421875
2022-12-05T07:59:40.463Z,15.6982421875
2022-12-05T08:09:40.379Z,15.6005859375
2022-12-05T08:19:40.320Z,15.4052734375
2022-12-05T08:29:40.256Z,15.29541015625
2022-12-05T08:39:40.172Z,15.29541015625
2022-12-05T08:49:40.142Z,15.29541015625
2022-12-05T08:59:40.052Z,15.4052734375
2022-12-05T09:09:40.068Z,15.4052734375
2022-12-05T09:19:39.873Z,15.4052734375
2022-12-05T09:29:39.935Z,15.19775390625
2022-12-05T09:39:39.780Z,15.19775390625
2022-12-05T09:49:39.783Z,15.29541015625
2022-12-05T09:59:39.574Z,15.19775390625
2022-12-05T10:09:39.531Z,15.19775390625
2022-12-05T10:19:39.480Z,15.19775390625
2022-12-05T10:29:39.509Z,15.19775390625
2022-12-05T10:39:39.287Z,15.19775390625
2022-12-05T10:49:39.243Z,15.19775390625
2022-12-05T10:59:39.173Z,15.10009765625
2022-12-05T11:09:39.123Z,15.10009765625
2022-12-05T11:19:39.035Z,15.10009765625
2022-12-05T11:29:38.948Z,15.10009765625
2022-12-05T11:39:38.893Z,15.00244140625
2022-12-05T11:49:38.843Z,14.90478515625
2022-12-05T11:59:38.853Z,15.00244140625
2022-12-05T12:09:38.683Z,14.90478515625
2022-12-05T12:19:38.601Z,14.794921875
2022-12-05T12:29:38.556Z,14.794921875
2022-12-05T12:39:38.575Z,14.90478515625
2022-12-05T12:49:38.438Z,14.90478515625
2022-12-05T12:59:38.328Z,14.794921875
2022-12-05T13:09:38.307Z,14.794921875
2022-12-05T13:19:38.309Z,14.697265625
2022-12-05T13:29:38.201Z,14.794921875
2022-12-05T13:39:38.160Z,14.794921875
2022-12-05T13:49:38.006Z,14.697265625
2022-12-05T13:59:37.915Z,14.794921875
2022-12-05T14:09:37.856Z,14.794921875
2022-12-05T14:19:37.788Z,14.90478515625
2022-12-05T14:29:37.700Z,14.794921875
2022-12-05T14:39:37.652Z,14.90478515625
2022-12-05T14:49:38.620Z,14.90478515625
2022-12-05T14:59:37.494Z,14.90478515625
2022-12-05T15:09:38.219Z,14.90478515625
2022-12-05T15:19:37.372Z,15.00244140625
2022-12-05T15:29:37.406Z,15.00244140625
2022-12-05T15:39:37.239Z,14.90478515625
2022-12-05T15:49:37.172Z,14.90478515625
2022-12-05T15:59:37.106Z,14.90478515625
2022-12-05T16:09:37.045Z,14.90478515625
2022-12-05T16:19:36.960Z,14.90478515625
2022-12-05T16:29:36.878Z,14.90478515625
2022-12-05T16:39:36.852Z,14.90478515625
2022-12-05T16:49:42.657Z,14.90478515625
2022-12-05T16:59:36.733Z,15.00244140625
2022-12-05T17:09:36.614Z,15.00244140625
2022-12-05T17:19:36.533Z,14.90478515625
2022-12-05T17:29:36.464Z,15.00244140625
2022-12-05T17:39:36.416Z,15.00244140625
2022-12-05T17:49:36.331Z,15.10009765625
2022-12-05T17:59:36.276Z,15.19775390625
2022-12-05T18:09:36.215Z,15.19775390625
2022-12-05T18:19:36.109Z,15.19775390625
2022-12-05T18:29:36.091Z,15.19775390625
2022-12-05T18:39:36.002Z,15.19775390625
2022-12-05T18:49:35.891Z,15.4052734375
2022-12-05T18:59:35.865Z,15.5029296875
2022-12-05T19:09:35.766Z,15.5029296875
2022-12-05T19:19:35.733Z,15.5029296875
2022-12-05T19:29:35.598Z,15.5029296875
2022-12-05T19:39:37.644Z,15.7958984375
2022-12-05T19:49:35.488Z,15.90576171875
2022-12-05T19:59:35.450Z,15.6982421875
2022-12-05T20:09:35.335Z,15.7958984375
2022-12-05T20:19:35.278Z,16.50390625
2022-12-05T20:29:35.244Z,16.796875
2022-12-05T20:39:35.159Z,16.69921875
2022-12-05T20:49:35.098Z,16.29638671875
2022-12-05T20:59:34.988Z,16.69921875
2022-12-05T21:09:34.945Z,17.19970703125
2022-12-05T21:19:34.858Z,16.6015625
2022-12-05T21:29:34.783Z,16.50390625
2022-12-05T21:39:34.697Z,16.89453125
2022-12-05T21:49:34.620Z,16.796875
2022-12-05T21:59:34.541Z,16.6015625
2022-12-05T22:09:34.458Z,16.50390625
2022-12-05T22:19:34.434Z,16.50390625
2022-12-05T22:29:34.362Z,16.89453125
2022-12-05T22:39:34.303Z,16.89453125
2022-12-05T22:49:34.188Z,17.00439453125
2022-12-05T22:59:34.098Z,17.10205078125
2022-12-05T23:09:34.038Z,18.00537109375
2022-12-05T23:19:34.016Z,17.39501953125
2022-12-05T23:29:33.915Z,17.10205078125
2022-12-05T23:39:33.816Z,17.10205078125
2022-12-05T23:49:33.788Z,17.19970703125
2022-12-05T23:59:33.697Z,17.6025390625
